James E. Brown — WDH9622 — position and weather

sailwx.info

Track history (hours):
 
Tides and Currents Weather Stations Pressure Air Temp Water Temp Dewpoint Dewpoint Depression Visibility Wind Speed Wind Dir Waves Ship Positions

James E. Brown

Owner: Thomas J. Brown and Sons, Inc., Statten Island, NY. More information available from US FCC via Universal Licensing System and Coast Guard Vessel Documentation Center.

Last reported at 2017-Oct-16 21:46 UTC. Time now 2017-Oct-17 02:17 UTC.
Position N 40°39' W 074°05'.

Length 19 m; draft 4 m.

Type: Tug. MMSI: 367669920.

Date/timePositionNaut miles runAvg speedWind from/ knotsBaromVisibWave heightAir tempDewpointWater temp
2017-Oct-16 21:46N 40°39' W 074°05'2 6.1
2017-Oct-16 21:30N 40°40' W 074°04'0 0.8
2017-Oct-16 21:00N 40°41' W 074°04'0 0.2
2017-Oct-16 20:30N 40°41' W 074°04'0 0.1
2017-Oct-16 20:00N 40°41' W 074°04'0 0.3
2017-Oct-16 19:30N 40°41' W 074°04'0 0.3
2017-Oct-16 19:00N 40°41' W 074°04'0 0.0
2017-Oct-16 18:30N 40°41' W 074°04'0 0.3
2017-Oct-16 18:00N 40°41' W 074°04'0 0.3
2017-Oct-16 17:30N 40°41' W 074°04'0 0.0
2017-Oct-16 17:00N 40°41' W 074°04'0 0.3
2017-Oct-16 16:30N 40°41' W 074°04'0 0.0
2017-Oct-16 16:00N 40°41' W 074°04'0 0.0
2017-Oct-16 15:30N 40°41' W 074°04'0 0.0
2017-Oct-16 15:00N 40°41' W 074°04'0 0.1
2017-Oct-16 14:00N 40°41' W 074°04'  
2017-Oct-13 17:09N 40°38' W 074°10'1 5.9
2017-Oct-13 17:00N 40°39' W 074°08'4 3.8
2017-Oct-13 16:00N 40°41' W 074°04'0 0.3
2017-Oct-13 15:30N 40°41' W 074°04'0 0.0
2017-Oct-13 15:00N 40°41' W 074°04'0 0.0
2017-Oct-13 14:30N 40°41' W 074°04'0 0.0
2017-Oct-13 14:00N 40°41' W 074°04'0 0.0
2017-Oct-13 13:30N 40°41' W 074°04'0 0.0
2017-Oct-13 13:00N 40°41' W 074°04'0 0.0
2017-Oct-13 12:30N 40°41' W 074°04'0 0.0
2017-Oct-13 12:00N 40°41' W 074°04'0 0.3
2017-Oct-13 11:30N 40°41' W 074°04'0 0.0
2017-Oct-13 10:59N 40°41' W 074°04'0 0.0
2017-Oct-13 10:30N 40°41' W 074°04'3 0.2
2017-Oct-12 15:44N 40°40' W 074°01'0 0.0
2017-Oct-12 15:30N 40°40' W 074°01'1 2.1
2017-Oct-12 15:00N 40°40' W 074°01'1 2.3
2017-Oct-12 14:30N 40°42' W 074°01'0 0.1
2017-Oct-12 14:00N 40°42' W 074°01'0 0.8
2017-Oct-12 13:30N 40°41' W 074°01'0 0.6
2017-Oct-12 13:00N 40°41' W 074°01'4 7.9
2017-Oct-12 12:30N 40°44' W 073°58'0 0.1
2017-Oct-12 12:00N 40°44' W 073°58'0 0.0
2017-Oct-12 11:30N 40°44' W 073°58'11 0.8
2017-Oct-11 21:47N 40°38' W 074°10'2 6.2
2017-Oct-11 21:31N 40°40' W 074°09'2 3.4
2017-Oct-11 20:59N 40°41' W 074°08'0 0.3
2017-Oct-11 20:30N 40°41' W 074°08'1 1.0
2017-Oct-11 20:00N 40°42' W 074°09'0 0.2
2017-Oct-11 19:30N 40°42' W 074°09'0 0.0
2017-Oct-11 19:00N 40°42' W 074°09'0 0.0
2017-Oct-11 18:30N 40°42' W 074°09'1 2.5
2017-Oct-11 18:00N 40°42' W 074°07'3 6.2
2017-Oct-11 17:30N 40°44' W 074°05'1 2.1
2017-Oct-11 17:00N 40°45' W 074°06'6 0.3
2017-Oct-10 17:10N 40°39' W 074°07'0 1.3
2017-Oct-10 17:00N 40°39' W 074°06'2 4.9
2017-Oct-10 16:30N 40°40' W 074°04'0 0.6
2017-Oct-10 16:00N 40°40' W 074°04'2 4.1
2017-Oct-10 15:30N 40°39' W 074°02'0 0.0
2017-Oct-10 15:00N 40°39' W 074°02'3 2.7
2017-Oct-10 14:00N 40°41' W 074°04'1 1.8
2017-Oct-10 13:30N 40°40' W 074°03'2 3.7
2017-Oct-10 13:00N 40°39' W 074°02'0 0.0
2017-Oct-10 12:30N 40°39' W 074°02'2 3.5
2017-Oct-10 12:00N 40°40' W 074°03'1 1.9
2017-Oct-10 11:30N 40°41' W 074°04'1 2.8
2017-Oct-10 11:00N 40°39' W 074°04'  
Track history (hours):
 
Tides and Currents Weather Stations Pressure Air Temp Water Temp Dewpoint Dewpoint Depression Visibility Wind Speed Wind Dir Waves Ship Positions

James E. Brown

Owner: Thomas J. Brown and Sons, Inc., Statten Island, NY. More information available from US FCC via Universal Licensing System and Coast Guard Vessel Documentation Center.

Last reported at 2017-Oct-16 21:46 UTC. Time now 2017-Oct-17 02:17 UTC.
Position N 40°39' W 074°05'.

Length 19 m; draft 4 m.

Type: Tug. MMSI: 367669920.

Date/timePositionNaut miles runAvg speedWind from/ knotsBaromVisibWave heightAir tempDewpointWater temp
2017-Oct-16 21:46N 40°39' W 074°05'2 6.1
2017-Oct-16 21:30N 40°40' W 074°04'0 0.8
2017-Oct-16 21:00N 40°41' W 074°04'0 0.2
2017-Oct-16 20:30N 40°41' W 074°04'0 0.1
2017-Oct-16 20:00N 40°41' W 074°04'0 0.3
2017-Oct-16 19:30N 40°41' W 074°04'0 0.3
2017-Oct-16 19:00N 40°41' W 074°04'0 0.0
2017-Oct-16 18:30N 40°41' W 074°04'0 0.3
2017-Oct-16 18:00N 40°41' W 074°04'0 0.3
2017-Oct-16 17:30N 40°41' W 074°04'0 0.0
2017-Oct-16 17:00N 40°41' W 074°04'0 0.3
2017-Oct-16 16:30N 40°41' W 074°04'0 0.0
2017-Oct-16 16:00N 40°41' W 074°04'0 0.0
2017-Oct-16 15:30N 40°41' W 074°04'0 0.0
2017-Oct-16 15:00N 40°41' W 074°04'0 0.1
2017-Oct-16 14:00N 40°41' W 074°04'  
2017-Oct-13 17:09N 40°38' W 074°10'1 5.9
2017-Oct-13 17:00N 40°39' W 074°08'4 3.8
2017-Oct-13 16:00N 40°41' W 074°04'0 0.3
2017-Oct-13 15:30N 40°41' W 074°04'0 0.0
2017-Oct-13 15:00N 40°41' W 074°04'0 0.0
2017-Oct-13 14:30N 40°41' W 074°04'0 0.0
2017-Oct-13 14:00N 40°41' W 074°04'0 0.0
2017-Oct-13 13:30N 40°41' W 074°04'0 0.0
2017-Oct-13 13:00N 40°41' W 074°04'0 0.0
2017-Oct-13 12:30N 40°41' W 074°04'0 0.0
2017-Oct-13 12:00N 40°41' W 074°04'0 0.3
2017-Oct-13 11:30N 40°41' W 074°04'0 0.0
2017-Oct-13 10:59N 40°41' W 074°04'0 0.0
2017-Oct-13 10:30N 40°41' W 074°04'3 0.2
2017-Oct-12 15:44N 40°40' W 074°01'0 0.0
2017-Oct-12 15:30N 40°40' W 074°01'1 2.1
2017-Oct-12 15:00N 40°40' W 074°01'1 2.3
2017-Oct-12 14:30N 40°42' W 074°01'0 0.1
2017-Oct-12 14:00N 40°42' W 074°01'0 0.8
2017-Oct-12 13:30N 40°41' W 074°01'0 0.6
2017-Oct-12 13:00N 40°41' W 074°01'4 7.9
2017-Oct-12 12:30N 40°44' W 073°58'0 0.1
2017-Oct-12 12:00N 40°44' W 073°58'0 0.0
2017-Oct-12 11:30N 40°44' W 073°58'11 0.8
2017-Oct-11 21:47N 40°38' W 074°10'2 6.2
2017-Oct-11 21:31N 40°40' W 074°09'2 3.4
2017-Oct-11 20:59N 40°41' W 074°08'0 0.3
2017-Oct-11 20:30N 40°41' W 074°08'1 1.0
2017-Oct-11 20:00N 40°42' W 074°09'0 0.2
2017-Oct-11 19:30N 40°42' W 074°09'0 0.0
2017-Oct-11 19:00N 40°42' W 074°09'0 0.0
2017-Oct-11 18:30N 40°42' W 074°09'1 2.5
2017-Oct-11 18:00N 40°42' W 074°07'3 6.2
2017-Oct-11 17:30N 40°44' W 074°05'1 2.1
2017-Oct-11 17:00N 40°45' W 074°06'6 0.3
2017-Oct-10 17:10N 40°39' W 074°07'0 1.3
2017-Oct-10 17:00N 40°39' W 074°06'2 4.9
2017-Oct-10 16:30N 40°40' W 074°04'0 0.6
2017-Oct-10 16:00N 40°40' W 074°04'2 4.1
2017-Oct-10 15:30N 40°39' W 074°02'0 0.0
2017-Oct-10 15:00N 40°39' W 074°02'3 2.7
2017-Oct-10 14:00N 40°41' W 074°04'1 1.8
2017-Oct-10 13:30N 40°40' W 074°03'2 3.7
2017-Oct-10 13:00N 40°39' W 074°02'0 0.0
2017-Oct-10 12:30N 40°39' W 074°02'2 3.5
2017-Oct-10 12:00N 40°40' W 074°03'1 1.9
2017-Oct-10 11:30N 40°41' W 074°04'1 2.8
2017-Oct-10 11:00N 40°39' W 074°04'  

Dump ship's entire track history